sensor_id;sensor_type;location;lat;lon;timestamp;P1;durP1;ratioP1;P2;durP2;ratioP2
1935;SDS011;969;49.892;10.896;2024-02-26T00:00:31;4.93;;;3.80;;
1935;SDS011;969;49.892;10.896;2024-02-26T00:02:57;6.07;;;5.07;;
1935;SDS011;969;49.892;10.896;2024-02-26T00:05:22;6.60;;;4.33;;
1935;SDS011;969;49.892;10.896;2024-02-26T00:07:48;6.17;;;4.30;;
1935;SDS011;969;49.892;10.896;2024-02-26T00:10:14;5.80;;;4.70;;
1935;SDS011;969;49.892;10.896;2024-02-26T00:12:39;5.47;;;4.17;;
1935;SDS011;969;49.892;10.896;2024-02-26T00:15:06;5.70;;;3.80;;
1935;SDS011;969;49.892;10.896;2024-02-26T00:17:32;7.60;;;4.53;;
1935;SDS011;969;49.892;10.896;2024-02-26T00:19:58;8.27;;;4.10;;
1935;SDS011;969;49.892;10.896;2024-02-26T00:22:25;7.43;;;4.70;;
1935;SDS011;969;49.892;10.896;2024-02-26T00:24:51;6.40;;;4.20;;
1935;SDS011;969;49.892;10.896;2024-02-26T00:27:16;7.30;;;4.43;;
1935;SDS011;969;49.892;10.896;2024-02-26T00:29:42;4.83;;;4.00;;
1935;SDS011;969;49.892;10.896;2024-02-26T00:32:08;5.20;;;4.57;;
1935;SDS011;969;49.892;10.896;2024-02-26T00:34:33;4.97;;;3.90;;
1935;SDS011;969;49.892;10.896;2024-02-26T00:36:59;7.20;;;3.90;;
1935;SDS011;969;49.892;10.896;2024-02-26T00:39:25;6.60;;;4.47;;
1935;SDS011;969;49.892;10.896;2024-02-26T00:41:50;5.77;;;4.13;;
1935;SDS011;969;49.892;10.896;2024-02-26T00:44:16;5.30;;;3.53;;
1935;SDS011;969;49.892;10.896;2024-02-26T00:46:42;4.80;;;4.23;;
1935;SDS011;969;49.892;10.896;2024-02-26T00:49:08;6.60;;;3.77;;
1935;SDS011;969;49.892;10.896;2024-02-26T00:51:33;6.50;;;4.00;;
1935;SDS011;969;49.892;10.896;2024-02-26T00:53:59;4.27;;;3.63;;
1935;SDS011;969;49.892;10.896;2024-02-26T00:56:25;4.77;;;3.60;;
1935;SDS011;969;49.892;10.896;2024-02-26T00:58:50;5.80;;;4.30;;
1935;SDS011;969;49.892;10.896;2024-02-26T01:01:16;3.60;;;2.93;;
1935;SDS011;969;49.892;10.896;2024-02-26T01:03:42;8.27;;;5.23;;
1935;SDS011;969;49.892;10.896;2024-02-26T01:06:08;5.07;;;4.57;;
1935;SDS011;969;49.892;10.896;2024-02-26T01:08:34;5.30;;;3.87;;
1935;SDS011;969;49.892;10.896;2024-02-26T01:11:00;4.50;;;3.83;;
1935;SDS011;969;49.892;10.896;2024-02-26T01:13:26;6.60;;;4.10;;
1935;SDS011;969;49.892;10.896;2024-02-26T01:15:52;5.10;;;4.60;;
1935;SDS011;969;49.892;10.896;2024-02-26T01:18:17;6.13;;;4.20;;
1935;SDS011;969;49.892;10.896;2024-02-26T01:20:43;5.13;;;4.00;;
1935;SDS011;969;49.892;10.896;2024-02-26T01:23:08;4.43;;;3.70;;
1935;SDS011;969;49.892;10.896;2024-02-26T01:25:34;8.03;;;3.87;;
1935;SDS011;969;49.892;10.896;2024-02-26T01:27:59;5.20;;;3.57;;
1935;SDS011;969;49.892;10.896;2024-02-26T01:30:25;4.87;;;3.63;;
1935;SDS011;969;49.892;10.896;2024-02-26T01:32:51;5.80;;;4.73;;
1935;SDS011;969;49.892;10.896;2024-02-26T01:35:16;6.37;;;4.00;;
1935;SDS011;969;49.892;10.896;2024-02-26T01:37:42;5.13;;;3.50;;
1935;SDS011;969;49.892;10.896;2024-02-26T01:40:08;4.90;;;4.27;;
1935;SDS011;969;49.892;10.896;2024-02-26T01:42:34;5.20;;;4.00;;
1935;SDS011;969;49.892;10.896;2024-02-26T01:45:00;5.33;;;3.10;;
1935;SDS011;969;49.892;10.896;2024-02-26T01:47:26;5.80;;;4.30;;
1935;SDS011;969;49.892;10.896;2024-02-26T01:49:52;5.40;;;3.60;;
1935;SDS011;969;49.892;10.896;2024-02-26T01:52:18;4.53;;;3.33;;
1935;SDS011;969;49.892;10.896;2024-02-26T01:54:45;4.40;;;3.83;;
1935;SDS011;969;49.892;10.896;2024-02-26T01:57:11;5.03;;;3.60;;
1935;SDS011;969;49.892;10.896;2024-02-26T01:59:39;4.83;;;4.00;;
1935;SDS011;969;49.892;10.896;2024-02-26T02:02:06;5.60;;;3.93;;
1935;SDS011;969;49.892;10.896;2024-02-26T02:04:36;8.60;;;4.00;;
1935;SDS011;969;49.892;10.896;2024-02-26T02:07:02;4.20;;;3.70;;
1935;SDS011;969;49.892;10.896;2024-02-26T02:09:28;4.03;;;2.87;;
1935;SDS011;969;49.892;10.896;2024-02-26T02:11:54;4.47;;;3.20;;
1935;SDS011;969;49.892;10.896;2024-02-26T02:14:20;4.40;;;3.80;;
1935;SDS011;969;49.892;10.896;2024-02-26T02:16:47;5.73;;;3.60;;
1935;SDS011;969;49.892;10.896;2024-02-26T02:19:13;3.80;;;3.40;;
1935;SDS011;969;49.892;10.896;2024-02-26T02:21:38;4.07;;;3.10;;
1935;SDS011;969;49.892;10.896;2024-02-26T02:24:04;4.93;;;3.10;;
1935;SDS011;969;49.892;10.896;2024-02-26T02:26:30;3.13;;;2.77;;
1935;SDS011;969;49.892;10.896;2024-02-26T02:28:56;5.40;;;2.90;;
1935;SDS011;969;49.892;10.896;2024-02-26T02:31:22;4.87;;;3.60;;
1935;SDS011;969;49.892;10.896;2024-02-26T02:33:48;3.83;;;3.53;;
1935;SDS011;969;49.892;10.896;2024-02-26T02:36:14;4.07;;;3.03;;
1935;SDS011;969;49.892;10.896;2024-02-26T02:38:48;5.10;;;3.90;;
1935;SDS011;969;49.892;10.896;2024-02-26T02:41:17;4.20;;;3.00;;
1935;SDS011;969;49.892;10.896;2024-02-26T02:43:43;5.53;;;3.30;;
1935;SDS011;969;49.892;10.896;2024-02-26T02:46:09;3.87;;;3.30;;
1935;SDS011;969;49.892;10.896;2024-02-26T02:48:38;4.57;;;3.67;;
1935;SDS011;969;49.892;10.896;2024-02-26T02:51:04;3.70;;;3.07;;
1935;SDS011;969;49.892;10.896;2024-02-26T02:53:30;3.20;;;2.83;;
1935;SDS011;969;49.892;10.896;2024-02-26T02:55:55;5.00;;;3.77;;
1935;SDS011;969;49.892;10.896;2024-02-26T02:58:21;4.47;;;2.80;;
1935;SDS011;969;49.892;10.896;2024-02-26T03:00:47;3.53;;;2.83;;
1935;SDS011;969;49.892;10.896;2024-02-26T03:03:12;4.17;;;3.20;;
1935;SDS011;969;49.892;10.896;2024-02-26T03:05:38;3.80;;;3.00;;
1935;SDS011;969;49.892;10.896;2024-02-26T03:08:03;3.67;;;3.00;;
1935;SDS011;969;49.892;10.896;2024-02-26T03:10:29;4.07;;;3.30;;
1935;SDS011;969;49.892;10.896;2024-02-26T03:12:55;3.27;;;2.80;;
1935;SDS011;969;49.892;10.896;2024-02-26T03:15:21;3.67;;;3.00;;
1935;SDS011;969;49.892;10.896;2024-02-26T03:17:47;3.87;;;3.47;;
1935;SDS011;969;49.892;10.896;2024-02-26T03:20:12;3.43;;;3.13;;
1935;SDS011;969;49.892;10.896;2024-02-26T03:22:38;4.40;;;3.20;;
1935;SDS011;969;49.892;10.896;2024-02-26T03:25:05;3.97;;;2.90;;
1935;SDS011;969;49.892;10.896;2024-02-26T03:27:31;3.83;;;3.30;;
1935;SDS011;969;49.892;10.896;2024-02-26T03:29:57;4.07;;;3.60;;
1935;SDS011;969;49.892;10.896;2024-02-26T03:32:23;4.23;;;2.93;;
1935;SDS011;969;49.892;10.896;2024-02-26T03:34:48;4.87;;;3.40;;
1935;SDS011;969;49.892;10.896;2024-02-26T03:37:14;4.20;;;3.13;;
1935;SDS011;969;49.892;10.896;2024-02-26T03:39:40;3.30;;;2.80;;
1935;SDS011;969;49.892;10.896;2024-02-26T03:42:05;4.70;;;3.20;;
1935;SDS011;969;49.892;10.896;2024-02-26T03:44:31;4.03;;;3.27;;
1935;SDS011;969;49.892;10.896;2024-02-26T03:46:57;3.57;;;2.77;;
1935;SDS011;969;49.892;10.896;2024-02-26T03:49:22;3.87;;;3.03;;
1935;SDS011;969;49.892;10.896;2024-02-26T03:51:48;4.63;;;3.10;;
1935;SDS011;969;49.892;10.896;2024-02-26T03:54:14;4.13;;;3.30;;
1935;SDS011;969;49.892;10.896;2024-02-26T03:56:39;3.57;;;3.10;;
1935;SDS011;969;49.892;10.896;2024-02-26T03:59:05;4.30;;;3.10;;
1935;SDS011;969;49.892;10.896;2024-02-26T04:01:31;3.90;;;3.00;;
1935;SDS011;969;49.892;10.896;2024-02-26T04:03:56;4.00;;;3.07;;
1935;SDS011;969;49.892;10.896;2024-02-26T04:06:22;4.60;;;3.50;;
1935;SDS011;969;49.892;10.896;2024-02-26T04:08:48;4.20;;;2.80;;
1935;SDS011;969;49.892;10.896;2024-02-26T04:11:13;4.10;;;3.10;;
1935;SDS011;969;49.892;10.896;2024-02-26T04:13:42;3.40;;;2.53;;
1935;SDS011;969;49.892;10.896;2024-02-26T04:16:14;6.20;;;3.20;;
1935;SDS011;969;49.892;10.896;2024-02-26T04:18:41;3.67;;;3.00;;
1935;SDS011;969;49.892;10.896;2024-02-26T04:21:07;4.57;;;2.97;;
1935;SDS011;969;49.892;10.896;2024-02-26T04:23:32;2.93;;;2.33;;
1935;SDS011;969;49.892;10.896;2024-02-26T04:25:58;4.53;;;3.17;;
1935;SDS011;969;49.892;10.896;2024-02-26T04:28:24;2.90;;;2.60;;
1935;SDS011;969;49.892;10.896;2024-02-26T04:30:54;3.60;;;2.80;;
1935;SDS011;969;49.892;10.896;2024-02-26T04:33:20;3.27;;;2.97;;
1935;SDS011;969;49.892;10.896;2024-02-26T04:35:46;3.20;;;2.70;;
1935;SDS011;969;49.892;10.896;2024-02-26T04:38:11;3.70;;;2.90;;
1935;SDS011;969;49.892;10.896;2024-02-26T04:40:37;2.70;;;2.40;;
1935;SDS011;969;49.892;10.896;2024-02-26T04:43:02;3.20;;;2.70;;
1935;SDS011;969;49.892;10.896;2024-02-26T04:45:28;5.00;;;3.07;;
1935;SDS011;969;49.892;10.896;2024-02-26T04:47:54;3.50;;;2.60;;
1935;SDS011;969;49.892;10.896;2024-02-26T04:50:20;3.10;;;2.80;;
1935;SDS011;969;49.892;10.896;2024-02-26T04:52:45;4.00;;;2.93;;
1935;SDS011;969;49.892;10.896;2024-02-26T04:55:11;4.43;;;2.87;;
1935;SDS011;969;49.892;10.896;2024-02-26T04:57:36;3.30;;;2.57;;
1935;SDS011;969;49.892;10.896;2024-02-26T05:00:03;3.77;;;2.50;;
1935;SDS011;969;49.892;10.896;2024-02-26T05:02:30;3.10;;;2.60;;
1935;SDS011;969;49.892;10.896;2024-02-26T05:04:57;3.10;;;2.33;;
1935;SDS011;969;49.892;10.896;2024-02-26T05:07:23;3.60;;;2.60;;
1935;SDS011;969;49.892;10.896;2024-02-26T05:09:48;2.90;;;2.60;;
1935;SDS011;969;49.892;10.896;2024-02-26T05:12:14;3.13;;;2.50;;
1935;SDS011;969;49.892;10.896;2024-02-26T05:14:40;2.40;;;2.20;;
1935;SDS011;969;49.892;10.896;2024-02-26T05:17:06;3.87;;;2.53;;
1935;SDS011;969;49.892;10.896;2024-02-26T05:19:31;3.50;;;2.63;;
1935;SDS011;969;49.892;10.896;2024-02-26T05:21:57;4.17;;;3.10;;
1935;SDS011;969;49.892;10.896;2024-02-26T05:24:23;4.60;;;2.80;;
1935;SDS011;969;49.892;10.896;2024-02-26T05:26:48;3.67;;;2.33;;
1935;SDS011;969;49.892;10.896;2024-02-26T05:29:14;3.37;;;2.60;;
1935;SDS011;969;49.892;10.896;2024-02-26T05:31:42;5.27;;;2.70;;
1935;SDS011;969;49.892;10.896;2024-02-26T05:34:07;3.80;;;2.57;;
1935;SDS011;969;49.892;10.896;2024-02-26T05:36:33;3.37;;;3.07;;
1935;SDS011;969;49.892;10.896;2024-02-26T05:38:59;4.33;;;2.60;;
1935;SDS011;969;49.892;10.896;2024-02-26T05:41:25;3.33;;;2.63;;
1935;SDS011;969;49.892;10.896;2024-02-26T05:43:52;3.57;;;2.83;;
1935;SDS011;969;49.892;10.896;2024-02-26T05:46:18;3.47;;;2.70;;
1935;SDS011;969;49.892;10.896;2024-02-26T05:48:44;3.73;;;2.80;;
1935;SDS011;969;49.892;10.896;2024-02-26T05:51:11;3.07;;;2.37;;
1935;SDS011;969;49.892;10.896;2024-02-26T05:53:37;3.20;;;2.77;;
1935;SDS011;969;49.892;10.896;2024-02-26T05:56:02;3.97;;;3.00;;
1935;SDS011;969;49.892;10.896;2024-02-26T05:58:28;3.40;;;3.00;;
1935;SDS011;969;49.892;10.896;2024-02-26T06:00:54;3.70;;;2.60;;
1935;SDS011;969;49.892;10.896;2024-02-26T06:03:20;3.83;;;2.70;;
1935;SDS011;969;49.892;10.896;2024-02-26T06:05:46;3.30;;;2.67;;
1935;SDS011;969;49.892;10.896;2024-02-26T06:08:11;4.43;;;2.70;;
1935;SDS011;969;49.892;10.896;2024-02-26T06:10:37;3.00;;;2.40;;
1935;SDS011;969;49.892;10.896;2024-02-26T06:13:04;3.00;;;2.50;;
1935;SDS011;969;49.892;10.896;2024-02-26T06:15:29;3.10;;;2.60;;
1935;SDS011;969;49.892;10.896;2024-02-26T06:17:55;3.47;;;2.77;;
1935;SDS011;969;49.892;10.896;2024-02-26T06:20:21;2.67;;;2.17;;
1935;SDS011;969;49.892;10.896;2024-02-26T06:22:46;2.90;;;2.57;;
1935;SDS011;969;49.892;10.896;2024-02-26T06:25:12;3.70;;;2.30;;
1935;SDS011;969;49.892;10.896;2024-02-26T06:27:37;3.20;;;2.30;;
1935;SDS011;969;49.892;10.896;2024-02-26T06:30:03;3.90;;;2.40;;
1935;SDS011;969;49.892;10.896;2024-02-26T06:32:29;2.63;;;2.43;;
1935;SDS011;969;49.892;10.896;2024-02-26T06:34:55;3.13;;;2.83;;
1935;SDS011;969;49.892;10.896;2024-02-26T06:37:21;3.60;;;2.40;;
1935;SDS011;969;49.892;10.896;2024-02-26T06:39:47;4.00;;;2.30;;
1935;SDS011;969;49.892;10.896;2024-02-26T06:42:12;3.10;;;2.20;;
1935;SDS011;969;49.892;10.896;2024-02-26T06:44:38;3.07;;;2.37;;
1935;SDS011;969;49.892;10.896;2024-02-26T06:47:04;3.40;;;2.80;;
1935;SDS011;969;49.892;10.896;2024-02-26T06:49:29;3.80;;;2.67;;
1935;SDS011;969;49.892;10.896;2024-02-26T06:51:55;3.90;;;2.50;;
1935;SDS011;969;49.892;10.896;2024-02-26T06:54:21;3.83;;;2.70;;
1935;SDS011;969;49.892;10.896;2024-02-26T06:56:46;2.67;;;2.43;;
1935;SDS011;969;49.892;10.896;2024-02-26T06:59:12;3.10;;;2.70;;
1935;SDS011;969;49.892;10.896;2024-02-26T07:01:40;2.90;;;2.60;;
1935;SDS011;969;49.892;10.896;2024-02-26T07:04:06;2.70;;;2.30;;
1935;SDS011;969;49.892;10.896;2024-02-26T07:06:32;2.70;;;2.20;;
1935;SDS011;969;49.892;10.896;2024-02-26T07:08:57;3.30;;;2.60;;
1935;SDS011;969;49.892;10.896;2024-02-26T07:11:23;3.10;;;2.23;;
1935;SDS011;969;49.892;10.896;2024-02-26T07:13:49;3.37;;;2.20;;
1935;SDS011;969;49.892;10.896;2024-02-26T07:16:14;2.07;;;1.87;;
1935;SDS011;969;49.892;10.896;2024-02-26T07:18:40;4.07;;;2.23;;
1935;SDS011;969;49.892;10.896;2024-02-26T07:21:08;3.30;;;2.43;;
1935;SDS011;969;49.892;10.896;2024-02-26T07:23:34;2.63;;;1.80;;
1935;SDS011;969;49.892;10.896;2024-02-26T07:25:59;3.07;;;2.40;;
1935;SDS011;969;49.892;10.896;2024-02-26T07:28:25;3.10;;;2.40;;
1935;SDS011;969;49.892;10.896;2024-02-26T07:30:50;2.47;;;1.77;;
1935;SDS011;969;49.892;10.896;2024-02-26T07:33:16;2.20;;;2.00;;
1935;SDS011;969;49.892;10.896;2024-02-26T07:35:41;2.00;;;1.80;;
1935;SDS011;969;49.892;10.896;2024-02-26T07:38:07;2.23;;;1.90;;
1935;SDS011;969;49.892;10.896;2024-02-26T07:40:33;3.60;;;2.27;;
1935;SDS011;969;49.892;10.896;2024-02-26T07:42:58;3.23;;;1.93;;
1935;SDS011;969;49.892;10.896;2024-02-26T07:45:24;2.57;;;1.90;;
1935;SDS011;969;49.892;10.896;2024-02-26T07:47:49;3.23;;;2.60;;
1935;SDS011;969;49.892;10.896;2024-02-26T07:50:16;2.53;;;2.00;;
1935;SDS011;969;49.892;10.896;2024-02-26T07:52:42;3.93;;;2.20;;
1935;SDS011;969;49.892;10.896;2024-02-26T07:55:09;2.83;;;2.10;;
1935;SDS011;969;49.892;10.896;2024-02-26T07:57:34;4.93;;;2.50;;
1935;SDS011;969;49.892;10.896;2024-02-26T08:00:00;2.37;;;1.97;;
1935;SDS011;969;49.892;10.896;2024-02-26T08:02:27;2.07;;;1.83;;
1935;SDS011;969;49.892;10.896;2024-02-26T08:04:53;4.60;;;2.40;;
1935;SDS011;969;49.892;10.896;2024-02-26T08:07:19;2.80;;;2.30;;
1935;SDS011;969;49.892;10.896;2024-02-26T08:09:46;2.50;;;2.30;;
1935;SDS011;969;49.892;10.896;2024-02-26T08:12:12;2.60;;;2.17;;
1935;SDS011;969;49.892;10.896;2024-02-26T08:14:38;3.13;;;2.20;;
1935;SDS011;969;49.892;10.896;2024-02-26T08:17:03;2.30;;;2.07;;
1935;SDS011;969;49.892;10.896;2024-02-26T08:19:29;2.27;;;2.07;;
1935;SDS011;969;49.892;10.896;2024-02-26T08:21:54;6.37;;;2.40;;
1935;SDS011;969;49.892;10.896;2024-02-26T08:24:20;2.50;;;1.90;;
1935;SDS011;969;49.892;10.896;2024-02-26T08:26:46;3.30;;;1.90;;
1935;SDS011;969;49.892;10.896;2024-02-26T08:29:11;3.23;;;2.17;;
1935;SDS011;969;49.892;10.896;2024-02-26T08:31:37;3.27;;;2.37;;
1935;SDS011;969;49.892;10.896;2024-02-26T08:34:05;2.33;;;2.10;;
1935;SDS011;969;49.892;10.896;2024-02-26T08:36:32;3.23;;;2.27;;
1935;SDS011;969;49.892;10.896;2024-02-26T08:38:58;2.90;;;2.00;;
1935;SDS011;969;49.892;10.896;2024-02-26T08:41:24;2.67;;;2.10;;
1935;SDS011;969;49.892;10.896;2024-02-26T08:43:50;3.27;;;2.07;;
1935;SDS011;969;49.892;10.896;2024-02-26T08:46:16;2.40;;;2.20;;
1935;SDS011;969;49.892;10.896;2024-02-26T08:48:41;3.30;;;2.50;;
1935;SDS011;969;49.892;10.896;2024-02-26T08:51:07;3.37;;;2.30;;
1935;SDS011;969;49.892;10.896;2024-02-26T08:53:33;3.30;;;2.53;;
1935;SDS011;969;49.892;10.896;2024-02-26T08:56:00;2.83;;;1.93;;
1935;SDS011;969;49.892;10.896;2024-02-26T08:58:26;2.53;;;2.33;;
1935;SDS011;969;49.892;10.896;2024-02-26T09:00:53;3.03;;;2.10;;
1935;SDS011;969;49.892;10.896;2024-02-26T09:03:19;4.50;;;2.40;;
1935;SDS011;969;49.892;10.896;2024-02-26T09:05:44;3.80;;;2.40;;
1935;SDS011;969;49.892;10.896;2024-02-26T09:08:10;2.33;;;2.13;;
1935;SDS011;969;49.892;10.896;2024-02-26T09:10:36;2.23;;;1.90;;
1935;SDS011;969;49.892;10.896;2024-02-26T09:13:01;4.07;;;2.30;;
1935;SDS011;969;49.892;10.896;2024-02-26T09:15:27;2.50;;;2.10;;
1935;SDS011;969;49.892;10.896;2024-02-26T09:17:53;2.03;;;1.80;;
1935;SDS011;969;49.892;10.896;2024-02-26T09:20:18;2.53;;;2.00;;
1935;SDS011;969;49.892;10.896;2024-02-26T09:22:45;2.90;;;2.20;;
1935;SDS011;969;49.892;10.896;2024-02-26T09:25:12;3.53;;;2.30;;
1935;SDS011;969;49.892;10.896;2024-02-26T09:27:38;2.23;;;2.00;;
1935;SDS011;969;49.892;10.896;2024-02-26T09:30:04;3.50;;;2.17;;
1935;SDS011;969;49.892;10.896;2024-02-26T09:32:30;2.00;;;1.80;;
1935;SDS011;969;49.892;10.896;2024-02-26T09:34:55;2.90;;;1.90;;
1935;SDS011;969;49.892;10.896;2024-02-26T09:37:21;2.90;;;1.80;;
1935;SDS011;969;49.892;10.896;2024-02-26T09:39:47;2.53;;;2.00;;
1935;SDS011;969;49.892;10.896;2024-02-26T09:42:13;2.60;;;1.93;;
1935;SDS011;969;49.892;10.896;2024-02-26T09:44:39;2.40;;;2.20;;
1935;SDS011;969;49.892;10.896;2024-02-26T09:47:07;3.57;;;2.23;;
1935;SDS011;969;49.892;10.896;2024-02-26T09:49:35;2.57;;;2.00;;
1935;SDS011;969;49.892;10.896;2024-02-26T09:52:01;3.17;;;2.40;;
1935;SDS011;969;49.892;10.896;2024-02-26T09:54:29;3.57;;;2.27;;
1935;SDS011;969;49.892;10.896;2024-02-26T09:56:57;2.20;;;1.70;;
1935;SDS011;969;49.892;10.896;2024-02-26T09:59:26;2.53;;;2.33;;
1935;SDS011;969;49.892;10.896;2024-02-26T10:01:53;3.70;;;2.30;;
1935;SDS011;969;49.892;10.896;2024-02-26T10:04:19;2.83;;;2.03;;
1935;SDS011;969;49.892;10.896;2024-02-26T10:06:46;2.43;;;2.20;;
1935;SDS011;969;49.892;10.896;2024-02-26T10:09:12;2.97;;;1.80;;
1935;SDS011;969;49.892;10.896;2024-02-26T10:11:40;2.20;;;2.00;;
1935;SDS011;969;49.892;10.896;2024-02-26T10:14:08;2.73;;;1.90;;
1935;SDS011;969;49.892;10.896;2024-02-26T10:16:34;2.57;;;2.23;;
1935;SDS011;969;49.892;10.896;2024-02-26T10:19:00;2.10;;;1.80;;
1935;SDS011;969;49.892;10.896;2024-02-26T10:21:26;2.53;;;2.30;;
1935;SDS011;969;49.892;10.896;2024-02-26T10:23:53;2.90;;;2.10;;
1935;SDS011;969;49.892;10.896;2024-02-26T10:26:19;2.30;;;1.90;;
1935;SDS011;969;49.892;10.896;2024-02-26T10:28:45;2.60;;;2.00;;
1935;SDS011;969;49.892;10.896;2024-02-26T10:31:13;2.70;;;2.10;;
1935;SDS011;969;49.892;10.896;2024-02-26T10:33:39;1.60;;;1.50;;
1935;SDS011;969;49.892;10.896;2024-02-26T10:36:07;3.10;;;2.10;;
1935;SDS011;969;49.892;10.896;2024-02-26T10:38:34;1.70;;;1.53;;
1935;SDS011;969;49.892;10.896;2024-02-26T10:41:04;2.87;;;2.53;;
1935;SDS011;969;49.892;10.896;2024-02-26T10:43:37;3.20;;;2.33;;
1935;SDS011;969;49.892;10.896;2024-02-26T10:46:03;3.03;;;1.53;;
1935;SDS011;969;49.892;10.896;2024-02-26T10:48:29;2.60;;;2.00;;
1935;SDS011;969;49.892;10.896;2024-02-26T10:50:54;2.40;;;1.83;;
1935;SDS011;969;49.892;10.896;2024-02-26T10:53:22;3.10;;;2.07;;
1935;SDS011;969;49.892;10.896;2024-02-26T10:55:49;3.40;;;2.13;;
1935;SDS011;969;49.892;10.896;2024-02-26T10:58:22;2.53;;;1.57;;
1935;SDS011;969;49.892;10.896;2024-02-26T11:00:50;3.93;;;2.50;;
1935;SDS011;969;49.892;10.896;2024-02-26T11:03:16;2.40;;;1.73;;
1935;SDS011;969;49.892;10.896;2024-02-26T11:05:44;2.60;;;1.90;;
1935;SDS011;969;49.892;10.896;2024-02-26T11:08:15;2.80;;;2.00;;
1935;SDS011;969;49.892;10.896;2024-02-26T11:10:43;2.17;;;1.90;;
1935;SDS011;969;49.892;10.896;2024-02-26T11:13:14;2.27;;;2.07;;
1935;SDS011;969;49.892;10.896;2024-02-26T11:15:42;2.17;;;1.90;;
1935;SDS011;969;49.892;10.896;2024-02-26T11:18:09;2.53;;;2.00;;
1935;SDS011;969;49.892;10.896;2024-02-26T11:20:38;2.30;;;2.00;;
1935;SDS011;969;49.892;10.896;2024-02-26T11:23:05;3.13;;;1.90;;
1935;SDS011;969;49.892;10.896;2024-02-26T11:25:32;4.57;;;2.40;;
1935;SDS011;969;49.892;10.896;2024-02-26T11:28:01;2.97;;;1.93;;
1935;SDS011;969;49.892;10.896;2024-02-26T11:30:31;2.10;;;1.70;;
1935;SDS011;969;49.892;10.896;2024-02-26T11:33:01;3.20;;;2.27;;
1935;SDS011;969;49.892;10.896;2024-02-26T11:35:26;2.37;;;2.17;;
1935;SDS011;969;49.892;10.896;2024-02-26T11:37:54;2.97;;;2.37;;
1935;SDS011;969;49.892;10.896;2024-02-26T11:40:22;3.73;;;2.13;;
1935;SDS011;969;49.892;10.896;2024-02-26T11:42:50;3.33;;;2.23;;
1935;SDS011;969;49.892;10.896;2024-02-26T11:48:16;1.63;;;1.53;;
1935;SDS011;969;49.892;10.896;2024-02-26T11:50:48;3.53;;;1.97;;
1935;SDS011;969;49.892;10.896;2024-02-26T11:53:19;2.73;;;2.03;;
1935;SDS011;969;49.892;10.896;2024-02-26T11:59:04;2.27;;;1.97;;
1935;SDS011;969;49.892;10.896;2024-02-26T12:01:41;3.70;;;2.50;;
1935;SDS011;969;49.892;10.896;2024-02-26T12:04:13;2.67;;;2.10;;
1935;SDS011;969;49.892;10.896;2024-02-26T12:06:42;2.53;;;2.33;;
1935;SDS011;969;49.892;10.896;2024-02-26T12:12:17;3.70;;;3.10;;
1935;SDS011;969;49.892;10.896;2024-02-26T12:14:50;3.43;;;2.83;;
1935;SDS011;969;49.892;10.896;2024-02-26T12:17:20;4.53;;;3.07;;
1935;SDS011;969;49.892;10.896;2024-02-26T12:19:49;3.43;;;2.57;;
1935;SDS011;969;49.892;10.896;2024-02-26T12:22:16;5.37;;;2.87;;
1935;SDS011;969;49.892;10.896;2024-02-26T12:24:45;4.47;;;2.60;;
1935;SDS011;969;49.892;10.896;2024-02-26T12:27:11;4.77;;;4.00;;
1935;SDS011;969;49.892;10.896;2024-02-26T12:29:37;4.50;;;3.30;;
1935;SDS011;969;49.892;10.896;2024-02-26T12:32:06;6.37;;;3.33;;
1935;SDS011;969;49.892;10.896;2024-02-26T12:34:32;4.23;;;3.30;;
1935;SDS011;969;49.892;10.896;2024-02-26T12:36:58;5.87;;;3.10;;
1935;SDS011;969;49.892;10.896;2024-02-26T12:39:23;5.60;;;3.17;;
1935;SDS011;969;49.892;10.896;2024-02-26T12:41:49;5.03;;;3.70;;
1935;SDS011;969;49.892;10.896;2024-02-26T12:44:24;8.53;;;3.63;;
1935;SDS011;969;49.892;10.896;2024-02-26T12:46:50;5.80;;;3.97;;
1935;SDS011;969;49.892;10.896;2024-02-26T12:49:16;7.57;;;3.60;;
1935;SDS011;969;49.892;10.896;2024-02-26T12:51:43;6.20;;;4.00;;
1935;SDS011;969;49.892;10.896;2024-02-26T12:54:09;5.03;;;3.93;;
1935;SDS011;969;49.892;10.896;2024-02-26T12:56:35;5.17;;;3.70;;
1935;SDS011;969;49.892;10.896;2024-02-26T12:59:01;7.03;;;4.87;;
1935;SDS011;969;49.892;10.896;2024-02-26T13:01:28;7.83;;;4.90;;
1935;SDS011;969;49.892;10.896;2024-02-26T13:03:55;10.80;;;6.00;;
1935;SDS011;969;49.892;10.896;2024-02-26T13:06:21;13.20;;;8.57;;
1935;SDS011;969;49.892;10.896;2024-02-26T13:08:47;10.03;;;6.00;;
1935;SDS011;969;49.892;10.896;2024-02-26T13:11:13;16.03;;;8.80;;
1935;SDS011;969;49.892;10.896;2024-02-26T13:13:39;23.10;;;11.63;;
1935;SDS011;969;49.892;10.896;2024-02-26T13:16:05;18.77;;;12.63;;
1935;SDS011;969;49.892;10.896;2024-02-26T13:18:33;26.03;;;14.33;;
1935;SDS011;969;49.892;10.896;2024-02-26T13:23:43;29.27;;;14.70;;
1935;SDS011;969;49.892;10.896;2024-02-26T13:26:13;22.93;;;13.77;;
1935;SDS011;969;49.892;10.896;2024-02-26T13:28:39;28.07;;;14.23;;
1935;SDS011;969;49.892;10.896;2024-02-26T13:31:05;32.93;;;18.03;;
1935;SDS011;969;49.892;10.896;2024-02-26T13:33:32;31.73;;;17.03;;
1935;SDS011;969;49.892;10.896;2024-02-26T13:35:59;34.50;;;18.50;;
1935;SDS011;969;49.892;10.896;2024-02-26T13:38:25;34.43;;;18.53;;
1935;SDS011;969;49.892;10.896;2024-02-26T13:40:52;36.43;;;20.80;;
1935;SDS011;969;49.892;10.896;2024-02-26T13:43:18;38.23;;;20.00;;
1935;SDS011;969;49.892;10.896;2024-02-26T13:45:44;34.23;;;19.43;;
1935;SDS011;969;49.892;10.896;2024-02-26T13:48:10;36.27;;;19.60;;
1935;SDS011;969;49.892;10.896;2024-02-26T13:50:37;38.37;;;21.60;;
1935;SDS011;969;49.892;10.896;2024-02-26T13:53:08;48.70;;;25.37;;
1935;SDS011;969;49.892;10.896;2024-02-26T13:55:34;42.77;;;21.57;;
1935;SDS011;969;49.892;10.896;2024-02-26T13:57:59;33.57;;;19.57;;
1935;SDS011;969;49.892;10.896;2024-02-26T14:00:28;36.90;;;20.83;;
1935;SDS011;969;49.892;10.896;2024-02-26T14:02:57;37.17;;;20.40;;
1935;SDS011;969;49.892;10.896;2024-02-26T14:05:23;33.53;;;22.30;;
1935;SDS011;969;49.892;10.896;2024-02-26T14:07:49;34.13;;;20.17;;
1935;SDS011;969;49.892;10.896;2024-02-26T14:10:14;41.23;;;22.50;;
1935;SDS011;969;49.892;10.896;2024-02-26T14:12:41;33.90;;;19.47;;
1935;SDS011;969;49.892;10.896;2024-02-26T14:15:07;38.50;;;21.50;;
1935;SDS011;969;49.892;10.896;2024-02-26T14:17:34;35.53;;;22.90;;
1935;SDS011;969;49.892;10.896;2024-02-26T14:20:00;34.70;;;21.57;;
1935;SDS011;969;49.892;10.896;2024-02-26T14:22:26;39.27;;;22.13;;
1935;SDS011;969;49.892;10.896;2024-02-26T14:24:52;38.03;;;21.97;;
1935;SDS011;969;49.892;10.896;2024-02-26T14:27:18;39.10;;;23.90;;
1935;SDS011;969;49.892;10.896;2024-02-26T14:29:47;37.30;;;22.53;;
1935;SDS011;969;49.892;10.896;2024-02-26T14:32:13;46.33;;;24.80;;
1935;SDS011;969;49.892;10.896;2024-02-26T14:34:38;46.30;;;25.03;;
1935;SDS011;969;49.892;10.896;2024-02-26T14:37:04;42.03;;;25.00;;
1935;SDS011;969;49.892;10.896;2024-02-26T14:39:33;48.37;;;25.57;;
1935;SDS011;969;49.892;10.896;2024-02-26T14:41:59;48.10;;;26.07;;
1935;SDS011;969;49.892;10.896;2024-02-26T14:44:25;51.07;;;26.03;;
1935;SDS011;969;49.892;10.896;2024-02-26T14:46:51;40.37;;;22.47;;
1935;SDS011;969;49.892;10.896;2024-02-26T14:49:17;45.57;;;24.43;;
1935;SDS011;969;49.892;10.896;2024-02-26T14:51:42;43.10;;;26.70;;
1935;SDS011;969;49.892;10.896;2024-02-26T14:54:12;44.93;;;26.87;;
1935;SDS011;969;49.892;10.896;2024-02-26T14:56:38;53.03;;;26.87;;
1935;SDS011;969;49.892;10.896;2024-02-26T14:59:03;43.67;;;24.33;;
1935;SDS011;969;49.892;10.896;2024-02-26T15:01:29;52.60;;;27.50;;
1935;SDS011;969;49.892;10.896;2024-02-26T15:03:55;46.43;;;26.93;;
1935;SDS011;969;49.892;10.896;2024-02-26T15:06:22;52.17;;;26.43;;
1935;SDS011;969;49.892;10.896;2024-02-26T15:08:47;44.90;;;26.47;;
1935;SDS011;969;49.892;10.896;2024-02-26T15:11:13;52.03;;;28.67;;
1935;SDS011;969;49.892;10.896;2024-02-26T15:13:38;53.00;;;28.07;;
1935;SDS011;969;49.892;10.896;2024-02-26T15:16:04;54.80;;;30.27;;
1935;SDS011;969;49.892;10.896;2024-02-26T15:18:31;48.43;;;27.50;;